sensor_id;sensor_type;location;lat;lon;timestamp;temperature;humidity
32097;DHT22;18610;49.916;8.284;2023-09-30T00:02:18;17.20;99.90
32097;DHT22;18610;49.916;8.284;2023-09-30T00:04:45;17.20;99.90
32097;DHT22;18610;49.916;8.284;2023-09-30T00:07:12;17.10;99.90
32097;DHT22;18610;49.916;8.284;2023-09-30T00:09:40;17.10;99.90
32097;DHT22;18610;49.916;8.284;2023-09-30T00:12:07;17.10;99.90
32097;DHT22;18610;49.916;8.284;2023-09-30T00:14:34;17.10;99.90
32097;DHT22;18610;49.916;8.284;2023-09-30T00:17:01;17.10;99.90
32097;DHT22;18610;49.916;8.284;2023-09-30T00:19:28;17.10;99.90
32097;DHT22;18610;49.916;8.284;2023-09-30T00:21:57;17.00;99.90
32097;DHT22;18610;49.916;8.284;2023-09-30T00:24:25;17.10;99.90
32097;DHT22;18610;49.916;8.284;2023-09-30T00:26:53;17.10;99.90
32097;DHT22;18610;49.916;8.284;2023-09-30T00:29:20;17.10;99.90
32097;DHT22;18610;49.916;8.284;2023-09-30T00:31:47;17.00;99.90
32097;DHT22;18610;49.916;8.284;2023-09-30T00:34:14;17.00;99.90
32097;DHT22;18610;49.916;8.284;2023-09-30T00:36:40;17.00;99.90
32097;DHT22;18610;49.916;8.284;2023-09-30T00:39:07;17.10;99.90
32097;DHT22;18610;49.916;8.284;2023-09-30T00:41:35;17.00;99.90
32097;DHT22;18610;49.916;8.284;2023-09-30T00:44:03;17.00;99.90
32097;DHT22;18610;49.916;8.284;2023-09-30T00:46:32;17.00;99.90
32097;DHT22;18610;49.916;8.284;2023-09-30T00:49:01;17.00;99.90
32097;DHT22;18610;49.916;8.284;2023-09-30T00:51:28;17.10;99.90
32097;DHT22;18610;49.916;8.284;2023-09-30T00:53:57;17.10;99.90
32097;DHT22;18610;49.916;8.284;2023-09-30T00:56:27;17.10;99.90
32097;DHT22;18610;49.916;8.284;2023-09-30T00:58:53;17.00;99.90
32097;DHT22;18610;49.916;8.284;2023-09-30T01:01:22;17.00;99.90
32097;DHT22;18610;49.916;8.284;2023-09-30T01:03:49;17.00;99.90
32097;DHT22;18610;49.916;8.284;2023-09-30T01:06:15;17.00;99.90
32097;DHT22;18610;49.916;8.284;2023-09-30T01:08:42;16.90;99.90
32097;DHT22;18610;49.916;8.284;2023-09-30T01:11:09;17.00;99.90
32097;DHT22;18610;49.916;8.284;2023-09-30T01:13:37;16.90;99.90
32097;DHT22;18610;49.916;8.284;2023-09-30T01:16:04;16.90;99.90
32097;DHT22;18610;49.916;8.284;2023-09-30T01:18:32;16.90;99.90
32097;DHT22;18610;49.916;8.284;2023-09-30T01:21:00;16.90;99.90
32097;DHT22;18610;49.916;8.284;2023-09-30T01:23:31;16.90;99.90
32097;DHT22;18610;49.916;8.284;2023-09-30T01:26:01;16.90;99.90
32097;DHT22;18610;49.916;8.284;2023-09-30T01:28:28;16.80;99.90
32097;DHT22;18610;49.916;8.284;2023-09-30T01:30:56;16.80;99.90
32097;DHT22;18610;49.916;8.284;2023-09-30T01:33:22;16.80;99.90
32097;DHT22;18610;49.916;8.284;2023-09-30T01:35:49;16.80;99.90
32097;DHT22;18610;49.916;8.284;2023-09-30T01:38:16;16.80;99.90
32097;DHT22;18610;49.916;8.284;2023-09-30T01:40:44;16.70;99.90
32097;DHT22;18610;49.916;8.284;2023-09-30T01:43:10;16.70;99.90
32097;DHT22;18610;49.916;8.284;2023-09-30T01:45:39;16.70;99.90
32097;DHT22;18610;49.916;8.284;2023-09-30T01:48:06;16.70;99.90
32097;DHT22;18610;49.916;8.284;2023-09-30T01:50:32;16.60;99.90
32097;DHT22;18610;49.916;8.284;2023-09-30T01:52:59;16.60;99.90
32097;DHT22;18610;49.916;8.284;2023-09-30T01:55:26;16.60;99.90
32097;DHT22;18610;49.916;8.284;2023-09-30T01:57:54;16.50;99.90
32097;DHT22;18610;49.916;8.284;2023-09-30T02:00:20;16.50;99.90
32097;DHT22;18610;49.916;8.284;2023-09-30T02:02:47;16.40;99.90
32097;DHT22;18610;49.916;8.284;2023-09-30T02:05:14;16.40;99.90
32097;DHT22;18610;49.916;8.284;2023-09-30T02:07:41;16.30;99.90
32097;DHT22;18610;49.916;8.284;2023-09-30T02:10:09;16.30;99.90
32097;DHT22;18610;49.916;8.284;2023-09-30T02:12:36;16.30;99.90
32097;DHT22;18610;49.916;8.284;2023-09-30T02:15:05;16.20;99.90
32097;DHT22;18610;49.916;8.284;2023-09-30T02:17:32;16.20;99.90
32097;DHT22;18610;49.916;8.284;2023-09-30T02:19:59;16.10;99.90
32097;DHT22;18610;49.916;8.284;2023-09-30T02:22:27;16.10;99.90
32097;DHT22;18610;49.916;8.284;2023-09-30T02:24:54;16.10;99.90
32097;DHT22;18610;49.916;8.284;2023-09-30T02:27:21;16.00;99.90
32097;DHT22;18610;49.916;8.284;2023-09-30T02:29:47;16.00;99.90
32097;DHT22;18610;49.916;8.284;2023-09-30T02:32:17;15.90;99.90
32097;DHT22;18610;49.916;8.284;2023-09-30T02:34:43;15.90;99.90
32097;DHT22;18610;49.916;8.284;2023-09-30T02:37:10;15.90;99.90
32097;DHT22;18610;49.916;8.284;2023-09-30T02:39:37;15.80;99.90
32097;DHT22;18610;49.916;8.284;2023-09-30T02:42:04;15.80;99.90
32097;DHT22;18610;49.916;8.284;2023-09-30T02:44:30;15.70;99.90
32097;DHT22;18610;49.916;8.284;2023-09-30T02:46:57;15.70;99.90
32097;DHT22;18610;49.916;8.284;2023-09-30T02:49:25;15.60;99.90
32097;DHT22;18610;49.916;8.284;2023-09-30T02:51:52;15.60;99.90
32097;DHT22;18610;49.916;8.284;2023-09-30T02:54:18;15.50;99.90
32097;DHT22;18610;49.916;8.284;2023-09-30T02:56:45;15.50;99.90
32097;DHT22;18610;49.916;8.284;2023-09-30T02:59:13;15.50;99.90
32097;DHT22;18610;49.916;8.284;2023-09-30T03:01:40;15.50;99.90
32097;DHT22;18610;49.916;8.284;2023-09-30T03:04:07;15.40;99.90
32097;DHT22;18610;49.916;8.284;2023-09-30T03:06:36;15.40;99.90
32097;DHT22;18610;49.916;8.284;2023-09-30T03:09:04;15.40;99.90
32097;DHT22;18610;49.916;8.284;2023-09-30T03:11:30;15.30;99.90
32097;DHT22;18610;49.916;8.284;2023-09-30T03:13:57;15.30;99.90
32097;DHT22;18610;49.916;8.284;2023-09-30T03:16:24;15.30;99.90
32097;DHT22;18610;49.916;8.284;2023-09-30T03:18:51;15.30;99.90
32097;DHT22;18610;49.916;8.284;2023-09-30T03:21:18;15.30;99.90
32097;DHT22;18610;49.916;8.284;2023-09-30T03:23:46;15.30;99.90
32097;DHT22;18610;49.916;8.284;2023-09-30T03:26:13;15.20;99.90
32097;DHT22;18610;49.916;8.284;2023-09-30T03:28:41;15.10;99.90
32097;DHT22;18610;49.916;8.284;2023-09-30T03:31:07;15.10;99.90
32097;DHT22;18610;49.916;8.284;2023-09-30T03:33:35;15.10;99.90
32097;DHT22;18610;49.916;8.284;2023-09-30T03:36:02;15.00;99.90
32097;DHT22;18610;49.916;8.284;2023-09-30T03:38:29;14.90;99.90
32097;DHT22;18610;49.916;8.284;2023-09-30T03:40:59;14.90;99.90
32097;DHT22;18610;49.916;8.284;2023-09-30T03:43:26;14.90;99.90
32097;DHT22;18610;49.916;8.284;2023-09-30T03:45:53;14.80;99.90
32097;DHT22;18610;49.916;8.284;2023-09-30T03:48:21;14.80;99.90
32097;DHT22;18610;49.916;8.284;2023-09-30T03:50:48;14.70;99.90
32097;DHT22;18610;49.916;8.284;2023-09-30T03:53:14;14.70;99.90
32097;DHT22;18610;49.916;8.284;2023-09-30T03:55:41;14.60;99.90
32097;DHT22;18610;49.916;8.284;2023-09-30T03:58:09;14.50;99.90
32097;DHT22;18610;49.916;8.284;2023-09-30T04:00:36;14.40;99.90
32097;DHT22;18610;49.916;8.284;2023-09-30T04:03:03;14.40;99.90
32097;DHT22;18610;49.916;8.284;2023-09-30T04:05:29;14.30;99.90
32097;DHT22;18610;49.916;8.284;2023-09-30T04:08:01;14.20;99.90
32097;DHT22;18610;49.916;8.284;2023-09-30T04:10:28;14.20;99.90
32097;DHT22;18610;49.916;8.284;2023-09-30T04:12:55;14.10;99.90
32097;DHT22;18610;49.916;8.284;2023-09-30T04:15:23;14.10;99.90
32097;DHT22;18610;49.916;8.284;2023-09-30T04:17:50;14.00;99.90
32097;DHT22;18610;49.916;8.284;2023-09-30T04:20:18;14.00;99.90
32097;DHT22;18610;49.916;8.284;2023-09-30T04:22:49;14.00;99.90
32097;DHT22;18610;49.916;8.284;2023-09-30T04:25:16;14.00;99.90
32097;DHT22;18610;49.916;8.284;2023-09-30T04:27:46;14.00;99.90
32097;DHT22;18610;49.916;8.284;2023-09-30T04:30:13;13.90;99.90
32097;DHT22;18610;49.916;8.284;2023-09-30T04:32:42;13.90;99.90
32097;DHT22;18610;49.916;8.284;2023-09-30T04:35:09;13.90;99.90
32097;DHT22;18610;49.916;8.284;2023-09-30T04:37:37;13.90;99.90
32097;DHT22;18610;49.916;8.284;2023-09-30T04:40:05;13.90;99.90
32097;DHT22;18610;49.916;8.284;2023-09-30T04:42:40;13.90;99.90
32097;DHT22;18610;49.916;8.284;2023-09-30T04:45:09;13.90;99.90
32097;DHT22;18610;49.916;8.284;2023-09-30T04:47:36;13.90;99.90
32097;DHT22;18610;49.916;8.284;2023-09-30T04:50:05;13.90;99.90
32097;DHT22;18610;49.916;8.284;2023-09-30T04:52:33;13.90;99.90
32097;DHT22;18610;49.916;8.284;2023-09-30T04:55:00;13.90;99.90
32097;DHT22;18610;49.916;8.284;2023-09-30T04:57:27;13.90;99.90
32097;DHT22;18610;49.916;8.284;2023-09-30T04:59:53;13.80;99.90
32097;DHT22;18610;49.916;8.284;2023-09-30T05:02:20;13.80;99.90
32097;DHT22;18610;49.916;8.284;2023-09-30T05:04:47;13.80;99.90
32097;DHT22;18610;49.916;8.284;2023-09-30T05:07:15;13.70;99.90
32097;DHT22;18610;49.916;8.284;2023-09-30T05:09:42;13.70;99.90
32097;DHT22;18610;49.916;8.284;2023-09-30T05:12:09;13.70;99.90
32097;DHT22;18610;49.916;8.284;2023-09-30T05:14:36;13.70;99.90
32097;DHT22;18610;49.916;8.284;2023-09-30T05:17:04;13.70;99.90
32097;DHT22;18610;49.916;8.284;2023-09-30T05:19:31;13.70;99.90
32097;DHT22;18610;49.916;8.284;2023-09-30T05:21:58;13.60;99.90
32097;DHT22;18610;49.916;8.284;2023-09-30T05:24:27;13.60;99.90
32097;DHT22;18610;49.916;8.284;2023-09-30T05:26:54;13.60;99.90
32097;DHT22;18610;49.916;8.284;2023-09-30T05:29:21;13.60;99.90
32097;DHT22;18610;49.916;8.284;2023-09-30T05:31:47;13.60;99.90
32097;DHT22;18610;49.916;8.284;2023-09-30T05:34:14;13.70;99.90
32097;DHT22;18610;49.916;8.284;2023-09-30T05:36:41;13.70;99.90
32097;DHT22;18610;49.916;8.284;2023-09-30T05:39:08;13.70;99.90
32097;DHT22;18610;49.916;8.284;2023-09-30T05:41:38;13.70;99.90
32097;DHT22;18610;49.916;8.284;2023-09-30T05:44:05;13.70;99.90
32097;DHT22;18610;49.916;8.284;2023-09-30T05:46:32;13.80;99.90
32097;DHT22;18610;49.916;8.284;2023-09-30T05:48:59;13.70;99.90
32097;DHT22;18610;49.916;8.284;2023-09-30T05:51:26;13.70;99.90
32097;DHT22;18610;49.916;8.284;2023-09-30T05:53:53;13.80;99.90
32097;DHT22;18610;49.916;8.284;2023-09-30T05:56:20;13.80;99.90
32097;DHT22;18610;49.916;8.284;2023-09-30T05:58:48;13.80;99.90
32097;DHT22;18610;49.916;8.284;2023-09-30T06:01:14;13.80;99.90
32097;DHT22;18610;49.916;8.284;2023-09-30T06:03:45;13.90;99.90
32097;DHT22;18610;49.916;8.284;2023-09-30T06:06:13;13.90;99.90
32097;DHT22;18610;49.916;8.284;2023-09-30T06:08:41;14.00;99.90
32097;DHT22;18610;49.916;8.284;2023-09-30T06:11:16;14.00;99.90
32097;DHT22;18610;49.916;8.284;2023-09-30T06:13:43;14.00;99.90
32097;DHT22;18610;49.916;8.284;2023-09-30T06:16:11;14.10;99.90
32097;DHT22;18610;49.916;8.284;2023-09-30T06:18:37;14.10;99.90
32097;DHT22;18610;49.916;8.284;2023-09-30T06:21:04;14.10;99.90
32097;DHT22;18610;49.916;8.284;2023-09-30T06:23:31;14.10;99.90
32097;DHT22;18610;49.916;8.284;2023-09-30T06:25:59;14.10;99.90
32097;DHT22;18610;49.916;8.284;2023-09-30T06:28:27;14.10;99.90
32097;DHT22;18610;49.916;8.284;2023-09-30T06:30:56;14.10;99.90
32097;DHT22;18610;49.916;8.284;2023-09-30T06:33:25;14.20;99.90
32097;DHT22;18610;49.916;8.284;2023-09-30T06:35:54;14.30;99.90
32097;DHT22;18610;49.916;8.284;2023-09-30T06:38:21;14.50;99.90
32097;DHT22;18610;49.916;8.284;2023-09-30T06:40:48;14.60;99.90
32097;DHT22;18610;49.916;8.284;2023-09-30T06:43:15;14.70;99.90
32097;DHT22;18610;49.916;8.284;2023-09-30T06:45:41;14.80;99.90
32097;DHT22;18610;49.916;8.284;2023-09-30T06:48:09;14.90;99.90
32097;DHT22;18610;49.916;8.284;2023-09-30T06:50:40;15.00;99.90
32097;DHT22;18610;49.916;8.284;2023-09-30T06:53:07;15.10;99.90
32097;DHT22;18610;49.916;8.284;2023-09-30T06:55:36;15.20;99.90
32097;DHT22;18610;49.916;8.284;2023-09-30T06:58:03;15.30;99.90
32097;DHT22;18610;49.916;8.284;2023-09-30T07:00:32;15.40;99.90
32097;DHT22;18610;49.916;8.284;2023-09-30T07:03:00;15.50;99.90
32097;DHT22;18610;49.916;8.284;2023-09-30T07:05:27;15.60;99.90
32097;DHT22;18610;49.916;8.284;2023-09-30T07:07:55;15.70;99.90
32097;DHT22;18610;49.916;8.284;2023-09-30T07:10:23;15.80;99.90
32097;DHT22;18610;49.916;8.284;2023-09-30T07:12:49;15.90;99.90
32097;DHT22;18610;49.916;8.284;2023-09-30T07:15:16;16.10;99.90
32097;DHT22;18610;49.916;8.284;2023-09-30T07:17:43;16.20;99.90
32097;DHT22;18610;49.916;8.284;2023-09-30T07:20:11;16.30;99.90
32097;DHT22;18610;49.916;8.284;2023-09-30T07:22:38;16.50;99.90
32097;DHT22;18610;49.916;8.284;2023-09-30T07:25:07;16.60;99.90
32097;DHT22;18610;49.916;8.284;2023-09-30T07:27:34;16.80;99.90
32097;DHT22;18610;49.916;8.284;2023-09-30T07:30:00;16.90;99.90
32097;DHT22;18610;49.916;8.284;2023-09-30T07:32:27;17.10;99.90
32097;DHT22;18610;49.916;8.284;2023-09-30T07:34:58;17.20;99.90
32097;DHT22;18610;49.916;8.284;2023-09-30T07:37:24;17.40;99.90
32097;DHT22;18610;49.916;8.284;2023-09-30T07:39:51;17.60;99.90
32097;DHT22;18610;49.916;8.284;2023-09-30T07:42:19;17.70;99.90
32097;DHT22;18610;49.916;8.284;2023-09-30T07:44:47;17.90;99.90
32097;DHT22;18610;49.916;8.284;2023-09-30T07:47:14;18.10;99.90
32097;DHT22;18610;49.916;8.284;2023-09-30T07:49:41;18.20;99.90
32097;DHT22;18610;49.916;8.284;2023-09-30T07:52:08;18.20;99.90
32097;DHT22;18610;49.916;8.284;2023-09-30T07:54:35;18.30;99.90
32097;DHT22;18610;49.916;8.284;2023-09-30T07:57:02;18.60;99.90
32097;DHT22;18610;49.916;8.284;2023-09-30T07:59:30;18.70;99.90
32097;DHT22;18610;49.916;8.284;2023-09-30T08:01:58;18.90;99.90
32097;DHT22;18610;49.916;8.284;2023-09-30T08:04:25;19.10;99.90
32097;DHT22;18610;49.916;8.284;2023-09-30T08:06:51;19.30;99.90
32097;DHT22;18610;49.916;8.284;2023-09-30T08:09:18;19.50;99.90
32097;DHT22;18610;49.916;8.284;2023-09-30T08:11:45;19.60;99.90
32097;DHT22;18610;49.916;8.284;2023-09-30T08:14:12;19.70;99.90
32097;DHT22;18610;49.916;8.284;2023-09-30T08:16:40;19.80;99.90
32097;DHT22;18610;49.916;8.284;2023-09-30T08:19:07;19.90;99.90
32097;DHT22;18610;49.916;8.284;2023-09-30T08:21:34;20.10;99.90
32097;DHT22;18610;49.916;8.284;2023-09-30T08:24:02;20.30;99.90
32097;DHT22;18610;49.916;8.284;2023-09-30T08:26:29;20.50;99.90
32097;DHT22;18610;49.916;8.284;2023-09-30T08:28:55;20.60;99.90
32097;DHT22;18610;49.916;8.284;2023-09-30T08:31:22;20.60;99.90
32097;DHT22;18610;49.916;8.284;2023-09-30T08:33:50;20.80;99.90
32097;DHT22;18610;49.916;8.284;2023-09-30T08:36:20;20.90;99.90
32097;DHT22;18610;49.916;8.284;2023-09-30T08:38:47;20.90;99.90
32097;DHT22;18610;49.916;8.284;2023-09-30T08:41:23;21.00;99.40
32097;DHT22;18610;49.916;8.284;2023-09-30T08:43:51;20.90;96.90
32097;DHT22;18610;49.916;8.284;2023-09-30T08:46:21;20.70;97.90
32097;DHT22;18610;49.916;8.284;2023-09-30T08:48:48;20.80;97.30
32097;DHT22;18610;49.916;8.284;2023-09-30T08:51:16;20.90;97.40
32097;DHT22;18610;49.916;8.284;2023-09-30T08:53:44;21.20;97.30
32097;DHT22;18610;49.916;8.284;2023-09-30T08:56:13;21.50;96.70
32097;DHT22;18610;49.916;8.284;2023-09-30T08:58:40;21.80;95.70
32097;DHT22;18610;49.916;8.284;2023-09-30T09:01:08;22.00;92.90
32097;DHT22;18610;49.916;8.284;2023-09-30T09:03:36;22.00;93.00
32097;DHT22;18610;49.916;8.284;2023-09-30T09:06:03;22.20;93.20
32097;DHT22;18610;49.916;8.284;2023-09-30T09:08:31;22.50;92.70
32097;DHT22;18610;49.916;8.284;2023-09-30T09:10:59;22.80;92.40
32097;DHT22;18610;49.916;8.284;2023-09-30T09:13:28;23.00;92.10
32097;DHT22;18610;49.916;8.284;2023-09-30T09:16:11;23.20;91.20
32097;DHT22;18610;49.916;8.284;2023-09-30T09:18:38;23.40;90.50
32097;DHT22;18610;49.916;8.284;2023-09-30T09:21:09;23.60;89.90
32097;DHT22;18610;49.916;8.284;2023-09-30T09:23:42;23.70;88.20
32097;DHT22;18610;49.916;8.284;2023-09-30T09:26:09;23.30;86.70
32097;DHT22;18610;49.916;8.284;2023-09-30T09:28:37;22.60;89.60
32097;DHT22;18610;49.916;8.284;2023-09-30T09:31:19;22.30;90.80
32097;DHT22;18610;49.916;8.284;2023-09-30T09:33:47;22.00;91.80
32097;DHT22;18610;49.916;8.284;2023-09-30T09:36:15;22.20;91.90
32097;DHT22;18610;49.916;8.284;2023-09-30T09:38:47;22.50;91.00
32097;DHT22;18610;49.916;8.284;2023-09-30T09:41:15;22.90;90.70
32097;DHT22;18610;49.916;8.284;2023-09-30T09:43:42;23.30;90.30
32097;DHT22;18610;49.916;8.284;2023-09-30T09:46:09;23.70;88.70
32097;DHT22;18610;49.916;8.284;2023-09-30T09:48:36;24.00;84.30
32097;DHT22;18610;49.916;8.284;2023-09-30T09:51:04;24.20;83.70
32097;DHT22;18610;49.916;8.284;2023-09-30T09:53:35;24.30;79.90
32097;DHT22;18610;49.916;8.284;2023-09-30T09:56:04;24.20;81.60
32097;DHT22;18610;49.916;8.284;2023-09-30T09:58:33;24.00;78.20
32097;DHT22;18610;49.916;8.284;2023-09-30T10:01:01;24.10;80.00
32097;DHT22;18610;49.916;8.284;2023-09-30T10:03:28;24.40;80.30
32097;DHT22;18610;49.916;8.284;2023-09-30T10:05:56;24.80;79.60
32097;DHT22;18610;49.916;8.284;2023-09-30T10:08:30;24.80;77.70
32097;DHT22;18610;49.916;8.284;2023-09-30T10:10:59;24.60;78.60
32097;DHT22;18610;49.916;8.284;2023-09-30T10:13:56;24.40;79.40
32097;DHT22;18610;49.916;8.284;2023-09-30T10:16:48;24.70;81.10
32097;DHT22;18610;49.916;8.284;2023-09-30T10:19:19;24.80;80.40
32097;DHT22;18610;49.916;8.284;2023-09-30T10:22:25;25.20;76.40
32097;DHT22;18610;49.916;8.284;2023-09-30T10:24:53;25.00;76.00
32097;DHT22;18610;49.916;8.284;2023-09-30T10:27:44;25.00;77.00
32097;DHT22;18610;49.916;8.284;2023-09-30T10:30:14;25.00;76.70
32097;DHT22;18610;49.916;8.284;2023-09-30T10:33:10;25.10;75.60
32097;DHT22;18610;49.916;8.284;2023-09-30T10:35:45;25.50;76.00
32097;DHT22;18610;49.916;8.284;2023-09-30T10:38:37;25.50;74.50
32097;DHT22;18610;49.916;8.284;2023-09-30T10:41:09;25.30;74.70
32097;DHT22;18610;49.916;8.284;2023-09-30T10:43:40;25.20;72.70
32097;DHT22;18610;49.916;8.284;2023-09-30T10:46:33;25.20;72.50
32097;DHT22;18610;49.916;8.284;2023-09-30T10:49:30;25.00;71.50
32097;DHT22;18610;49.916;8.284;2023-09-30T10:52:01;25.30;72.90
32097;DHT22;18610;49.916;8.284;2023-09-30T10:54:30;25.70;71.10
32097;DHT22;18610;49.916;8.284;2023-09-30T10:56:58;25.90;69.20
32097;DHT22;18610;49.916;8.284;2023-09-30T10:59:26;26.10;68.90
32097;DHT22;18610;49.916;8.284;2023-09-30T11:01:56;25.80;66.40
32097;DHT22;18610;49.916;8.284;2023-09-30T11:04:23;25.20;68.20
32097;DHT22;18610;49.916;8.284;2023-09-30T11:06:52;24.80;69.40
32097;DHT22;18610;49.916;8.284;2023-09-30T11:09:22;24.20;72.00
32097;DHT22;18610;49.916;8.284;2023-09-30T11:11:50;24.00;73.40
32097;DHT22;18610;49.916;8.284;2023-09-30T11:14:20;23.70;73.80
32097;DHT22;18610;49.916;8.284;2023-09-30T11:16:49;23.90;74.80
32097;DHT22;18610;49.916;8.284;2023-09-30T11:19:18;24.50;73.40
32097;DHT22;18610;49.916;8.284;2023-09-30T11:21:48;25.20;70.80
32097;DHT22;18610;49.916;8.284;2023-09-30T11:24:15;26.10;69.20
32097;DHT22;18610;49.916;8.284;2023-09-30T11:26:42;26.60;65.10
32097;DHT22;18610;49.916;8.284;2023-09-30T11:29:11;26.80;65.60
32097;DHT22;18610;49.916;8.284;2023-09-30T11:31:39;26.90;64.20
32097;DHT22;18610;49.916;8.284;2023-09-30T11:34:06;26.70;63.30
32097;DHT22;18610;49.916;8.284;2023-09-30T11:36:36;26.70;63.60
32097;DHT22;18610;49.916;8.284;2023-09-30T11:39:04;27.00;63.70
32097;DHT22;18610;49.916;8.284;2023-09-30T11:41:35;27.50;61.40
32097;DHT22;18610;49.916;8.284;2023-09-30T11:44:05;28.00;58.90
32097;DHT22;18610;49.916;8.284;2023-09-30T11:46:33;28.50;56.80
32097;DHT22;18610;49.916;8.284;2023-09-30T11:49:27;29.00;55.90
32097;DHT22;18610;49.916;8.284;2023-09-30T11:51:56;29.40;55.50
32097;DHT22;18610;49.916;8.284;2023-09-30T11:54:28;29.30;52.90
32097;DHT22;18610;49.916;8.284;2023-09-30T11:56:56;28.60;53.60
32097;DHT22;18610;49.916;8.284;2023-09-30T11:59:22;28.30;55.00
32097;DHT22;18610;49.916;8.284;2023-09-30T12:01:49;28.60;54.70
32097;DHT22;18610;49.916;8.284;2023-09-30T12:04:16;28.90;54.30
32097;DHT22;18610;49.916;8.284;2023-09-30T12:06:44;29.30;55.00
32097;DHT22;18610;49.916;8.284;2023-09-30T12:09:13;29.60;52.70
32097;DHT22;18610;49.916;8.284;2023-09-30T12:11:40;29.80;52.50
32097;DHT22;18610;49.916;8.284;2023-09-30T12:14:09;30.20;52.20
32097;DHT22;18610;49.916;8.284;2023-09-30T12:16:36;30.50;50.80
32097;DHT22;18610;49.916;8.284;2023-09-30T12:19:03;30.80;50.20
32097;DHT22;18610;49.916;8.284;2023-09-30T12:21:30;30.90;50.00
32097;DHT22;18610;49.916;8.284;2023-09-30T12:23:57;31.30;50.10
32097;DHT22;18610;49.916;8.284;2023-09-30T12:26:25;31.40;48.70
32097;DHT22;18610;49.916;8.284;2023-09-30T12:28:52;31.50;48.30
32097;DHT22;18610;49.916;8.284;2023-09-30T12:31:19;31.60;48.20
32097;DHT22;18610;49.916;8.284;2023-09-30T12:33:47;31.70;47.90
32097;DHT22;18610;49.916;8.284;2023-09-30T12:36:16;31.90;47.30
32097;DHT22;18610;49.916;8.284;2023-09-30T12:38:43;31.70;45.90
32097;DHT22;18610;49.916;8.284;2023-09-30T12:41:10;31.80;45.80
32097;DHT22;18610;49.916;8.284;2023-09-30T12:43:38;32.00;46.90
32097;DHT22;18610;49.916;8.284;2023-09-30T12:46:07;32.10;45.40
32097;DHT22;18610;49.916;8.284;2023-09-30T12:48:34;32.20;44.10
32097;DHT22;18610;49.916;8.284;2023-09-30T12:51:00;32.30;44.60
32097;DHT22;18610;49.916;8.284;2023-09-30T12:53:29;32.40;45.70
32097;DHT22;18610;49.916;8.284;2023-09-30T12:55:56;32.70;44.90
32097;DHT22;18610;49.916;8.284;2023-09-30T12:58:23;33.00;44.50
32097;DHT22;18610;49.916;8.284;2023-09-30T13:00:51;33.20;44.90
32097;DHT22;18610;49.916;8.284;2023-09-30T13:03:17;33.30;44.60
32097;DHT22;18610;49.916;8.284;2023-09-30T13:05:45;33.40;44.10
32097;DHT22;18610;49.916;8.284;2023-09-30T13:08:11;33.10;44.00
32097;DHT22;18610;49.916;8.284;2023-09-30T13:10:38;32.90;44.40
32097;DHT22;18610;49.916;8.284;2023-09-30T13:13:05;32.50;43.00
32097;DHT22;18610;49.916;8.284;2023-09-30T13:15:32;31.70;44.60
32097;DHT22;18610;49.916;8.284;2023-09-30T13:18:01;31.00;45.70
32097;DHT22;18610;49.916;8.284;2023-09-30T13:20:28;30.70;46.40
32097;DHT22;18610;49.916;8.284;2023-09-30T13:22:55;30.60;46.90
32097;DHT22;18610;49.916;8.284;2023-09-30T13:25:22;30.70;46.50
32097;DHT22;18610;49.916;8.284;2023-09-30T13:27:49;30.60;46.10
32097;DHT22;18610;49.916;8.284;2023-09-30T13:30:16;30.10;46.00
32097;DHT22;18610;49.916;8.284;2023-09-30T13:32:43;29.70;47.90
32097;DHT22;18610;49.916;8.284;2023-09-30T13:35:12;29.60;48.10
32097;DHT22;18610;49.916;8.284;2023-09-30T13:37:38;29.60;47.70
32097;DHT22;18610;49.916;8.284;2023-09-30T13:40:06;29.20;46.70
32097;DHT22;18610;49.916;8.284;2023-09-30T13:42:37;28.80;48.00
32097;DHT22;18610;49.916;8.284;2023-09-30T13:45:04;28.60;47.50
32097;DHT22;18610;49.916;8.284;2023-09-30T13:47:31;28.20;49.00
32097;DHT22;18610;49.916;8.284;2023-09-30T13:49:58;28.10;48.90
32097;DHT22;18610;49.916;8.284;2023-09-30T13:52:26;27.90;49.50
32097;DHT22;18610;49.916;8.284;2023-09-30T13:54:53;28.20;50.40
32097;DHT22;18610;49.916;8.284;2023-09-30T13:57:21;28.50;50.20
32097;DHT22;18610;49.916;8.284;2023-09-30T13:59:47;28.80;49.20
32097;DHT22;18610;49.916;8.284;2023-09-30T14:02:14;29.00;49.60
32097;DHT22;18610;49.916;8.284;2023-09-30T14:04:41;29.20;49.00
32097;DHT22;18610;49.916;8.284;2023-09-30T14:07:07;29.20;48.80
32097;DHT22;18610;49.916;8.284;2023-09-30T14:09:35;29.20;48.80
32097;DHT22;18610;49.916;8.284;2023-09-30T14:12:03;29.20;48.60
32097;DHT22;18610;49.916;8.284;2023-09-30T14:14:31;29.30;48.20
32097;DHT22;18610;49.916;8.284;2023-09-30T14:16:59;29.40;48.30
32097;DHT22;18610;49.916;8.284;2023-09-30T14:19:25;29.40;48.30
32097;DHT22;18610;49.916;8.284;2023-09-30T14:21:54;29.40;48.50
32097;DHT22;18610;49.916;8.284;2023-09-30T14:24:22;29.40;48.80
32097;DHT22;18610;49.916;8.284;2023-09-30T14:26:49;29.20;49.30
32097;DHT22;18610;49.916;8.284;2023-09-30T14:29:16;29.10;49.30
32097;DHT22;18610;49.916;8.284;2023-09-30T14:31:43;28.90;49.60
32097;DHT22;18610;49.916;8.284;2023-09-30T14:34:09;28.70;49.80
32097;DHT22;18610;49.916;8.284;2023-09-30T14:36:36;28.60;50.30
32097;DHT22;18610;49.916;8.284;2023-09-30T14:39:03;28.50;49.40
32097;DHT22;18610;49.916;8.284;2023-09-30T14:41:31;28.40;49.90
32097;DHT22;18610;49.916;8.284;2023-09-30T14:43:59;28.30;50.20
32097;DHT22;18610;49.916;8.284;2023-09-30T14:46:26;27.80;50.40
32097;DHT22;18610;49.916;8.284;2023-09-30T14:48:53;27.50;50.90
32097;DHT22;18610;49.916;8.284;2023-09-30T14:51:22;27.10;52.30
32097;DHT22;18610;49.916;8.284;2023-09-30T14:53:49;26.80;52.50
32097;DHT22;18610;49.916;8.284;2023-09-30T14:56:16;26.40;53.10
32097;DHT22;18610;49.916;8.284;2023-09-30T14:58:43;26.10;54.00
32097;DHT22;18610;49.916;8.284;2023-09-30T15:01:11;25.80;54.30
32097;DHT22;18610;49.916;8.284;2023-09-30T15:03:39;25.50;54.90
32097;DHT22;18610;49.916;8.284;2023-09-30T15:06:06;25.30;56.50
32097;DHT22;18610;49.916;8.284;2023-09-30T15:08:33;25.00;57.70
32097;DHT22;18610;49.916;8.284;2023-09-30T15:11:00;24.80;59.10
32097;DHT22;18610;49.916;8.284;2023-09-30T15:13:30;24.50;60.30
32097;DHT22;18610;49.916;8.284;2023-09-30T15:15:56;24.30;61.90
32097;DHT22;18610;49.916;8.284;2023-09-30T15:18:24;24.20;62.30
32097;DHT22;18610;49.916;8.284;2023-09-30T15:20:51;24.10;63.10
32097;DHT22;18610;49.916;8.284;2023-09-30T15:23:18;24.00;65.20
32097;DHT22;18610;49.916;8.284;2023-09-30T15:25:45;23.90;65.30
32097;DHT22;18610;49.916;8.284;2023-09-30T15:28:12;23.80;65.90
32097;DHT22;18610;49.916;8.284;2023-09-30T15:30:39;23.70;67.60
32097;DHT22;18610;49.916;8.284;2023-09-30T15:33:06;23.70;66.50
32097;DHT22;18610;49.916;8.284;2023-09-30T15:35:35;23.60;67.20
32097;DHT22;18610;49.916;8.284;2023-09-30T15:38:02;23.50;68.00